createdAt,value
2022-08-31T00:02:14.754Z,3.30
2022-08-31T00:04:42.441Z,3.67
2022-08-31T00:07:09.343Z,3.90
2022-08-31T00:09:36.324Z,3.70
2022-08-31T00:12:03.932Z,3.70
2022-08-31T00:14:30.973Z,4.00
2022-08-31T00:16:58.275Z,4.07
2022-08-31T00:19:25.405Z,4.30
2022-08-31T00:21:52.275Z,4.40
2022-08-31T00:24:19.343Z,5.50
2022-08-31T00:26:46.348Z,6.50
2022-08-31T00:29:15.000Z,5.82
2022-08-31T00:31:42.337Z,6.57
2022-08-31T00:34:09.543Z,6.70
2022-08-31T00:36:36.601Z,6.82
2022-08-31T00:39:05.757Z,6.63
2022-08-31T00:41:37.229Z,6.78
2022-08-31T00:44:08.178Z,6.97
2022-08-31T00:46:41.412Z,7.43
2022-08-31T00:49:30.291Z,7.68
2022-08-31T00:52:11.359Z,7.38
2022-08-31T00:54:51.717Z,7.40
2022-08-31T00:57:20.892Z,7.20
2022-08-31T01:00:02.989Z,7.82
2022-08-31T01:02:32.421Z,7.60
2022-08-31T01:04:59.525Z,7.43
2022-08-31T01:07:27.437Z,7.50
2022-08-31T01:09:55.782Z,6.00
2022-08-31T01:12:23.899Z,5.20
2022-08-31T01:14:51.010Z,4.32
2022-08-31T01:17:19.871Z,4.20
2022-08-31T01:19:59.234Z,4.60
2022-08-31T01:22:38.930Z,4.22
2022-08-31T01:25:06.954Z,4.25
2022-08-31T01:27:36.344Z,6.07
2022-08-31T01:30:10.576Z,5.45
2022-08-31T01:32:38.933Z,5.20
2022-08-31T01:35:07.636Z,5.18
2022-08-31T01:37:39.222Z,6.57
2022-08-31T01:40:07.641Z,5.20
2022-08-31T01:42:34.740Z,4.90
2022-08-31T01:45:02.408Z,4.53
2022-08-31T01:47:29.559Z,4.90
2022-08-31T01:49:57.657Z,5.35
2022-08-31T01:52:27.840Z,5.03
2022-08-31T01:54:55.670Z,5.38
2022-08-31T01:57:32.904Z,5.00
2022-08-31T02:00:04.391Z,5.50
2022-08-31T02:02:33.461Z,5.20
2022-08-31T02:05:00.922Z,5.22
2022-08-31T02:07:28.101Z,5.35
2022-08-31T02:09:55.295Z,5.60
2022-08-31T02:12:23.576Z,5.70
2022-08-31T02:14:50.588Z,5.97
2022-08-31T02:17:18.770Z,5.55
2022-08-31T02:19:45.763Z,5.20
2022-08-31T02:22:12.673Z,5.75
2022-08-31T02:24:39.816Z,5.90
2022-08-31T02:27:06.738Z,6.38
2022-08-31T02:29:33.892Z,6.40
2022-08-31T02:32:01.122Z,6.35
2022-08-31T02:34:28.305Z,6.32
2022-08-31T02:36:55.774Z,6.38
2022-08-31T02:39:24.100Z,6.30
2022-08-31T02:41:51.271Z,6.95
2022-08-31T02:44:18.666Z,6.47
2022-08-31T02:46:45.763Z,6.88
2022-08-31T02:49:12.819Z,6.97
2022-08-31T02:51:42.025Z,6.85
2022-08-31T02:54:09.810Z,7.00
2022-08-31T02:56:36.812Z,7.05
2022-08-31T02:59:04.421Z,8.05
2022-08-31T03:01:31.800Z,7.82
2022-08-31T03:04:01.133Z,8.05
2022-08-31T03:06:29.966Z,7.70
2022-08-31T03:08:57.436Z,7.60
2022-08-31T03:11:24.366Z,7.30
2022-08-31T03:13:54.161Z,7.10
2022-08-31T03:16:23.799Z,7.60
2022-08-31T03:18:51.057Z,7.55
2022-08-31T03:21:18.201Z,7.53
2022-08-31T03:23:45.399Z,7.68
2022-08-31T03:26:12.582Z,7.28
2022-08-31T03:28:39.463Z,8.23
2022-08-31T03:31:10.066Z,7.68
2022-08-31T03:33:39.767Z,7.95
2022-08-31T03:36:08.467Z,8.00
2022-08-31T03:38:35.527Z,8.57
2022-08-31T03:41:02.656Z,7.10
2022-08-31T03:43:29.575Z,7.38
2022-08-31T03:45:56.738Z,6.55
2022-08-31T03:48:23.862Z,8.05
2022-08-31T03:50:51.049Z,7.40
2022-08-31T03:53:22.445Z,8.43
2022-08-31T03:55:49.816Z,7.80
2022-08-31T03:58:16.974Z,8.77
2022-08-31T04:00:44.600Z,8.65
2022-08-31T04:03:11.890Z,8.05
2022-08-31T04:05:44.308Z,8.05
2022-08-31T04:08:11.868Z,8.48
2022-08-31T04:10:40.578Z,7.60
2022-08-31T04:13:07.505Z,8.60
2022-08-31T04:15:36.989Z,8.05
2022-08-31T04:18:04.929Z,8.02
2022-08-31T04:20:36.401Z,9.10
2022-08-31T04:23:04.739Z,8.93
2022-08-31T04:25:32.666Z,8.60
2022-08-31T04:28:02.046Z,9.00
2022-08-31T04:30:31.006Z,8.40
2022-08-31T04:32:58.138Z,8.35
2022-08-31T04:35:25.353Z,8.55
2022-08-31T04:37:52.319Z,7.53
2022-08-31T04:40:21.358Z,8.32
2022-08-31T04:42:53.230Z,8.40
2022-08-31T04:45:20.379Z,8.02
2022-08-31T04:47:47.576Z,7.82
2022-08-31T04:50:16.600Z,7.95
2022-08-31T04:52:45.120Z,8.27
2022-08-31T04:55:30.766Z,7.90
2022-08-31T04:57:57.866Z,7.72
2022-08-31T05:00:25.341Z,8.15
2022-08-31T05:02:54.239Z,8.18
2022-08-31T05:05:21.709Z,8.15
2022-08-31T05:07:48.896Z,8.35
2022-08-31T05:10:16.121Z,8.70
2022-08-31T05:12:45.483Z,8.32
2022-08-31T05:15:12.561Z,8.85
2022-08-31T05:17:39.490Z,8.60
2022-08-31T05:20:06.840Z,8.32
2022-08-31T05:22:34.121Z,8.48
2022-08-31T05:25:01.472Z,8.25
2022-08-31T05:27:28.388Z,7.50
2022-08-31T05:29:55.367Z,7.90
2022-08-31T05:32:22.596Z,7.90
2022-08-31T05:34:51.825Z,7.18
2022-08-31T05:37:19.090Z,7.50
2022-08-31T05:39:46.087Z,7.05
2022-08-31T05:42:16.750Z,7.57
2022-08-31T05:44:43.976Z,7.15
2022-08-31T05:47:10.929Z,7.63
2022-08-31T05:49:38.329Z,7.82
2022-08-31T05:52:08.480Z,7.00
2022-08-31T05:54:38.000Z,6.72
2022-08-31T05:57:05.258Z,6.30
2022-08-31T05:59:33.189Z,6.47
2022-08-31T06:02:00.822Z,6.32
2022-08-31T06:04:29.735Z,5.90
2022-08-31T06:06:57.897Z,6.00
2022-08-31T06:09:25.054Z,6.22
2022-08-31T06:11:54.238Z,5.47
2022-08-31T06:14:24.537Z,5.97
2022-08-31T06:16:51.710Z,5.97
2022-08-31T06:19:20.086Z,5.35
2022-08-31T06:21:50.967Z,5.43
2022-08-31T06:24:19.697Z,5.68
2022-08-31T06:26:58.861Z,5.53
2022-08-31T06:29:28.174Z,5.78
2022-08-31T06:31:55.763Z,5.47
2022-08-31T06:34:23.716Z,5.30
2022-08-31T06:36:50.961Z,5.43
2022-08-31T06:39:18.452Z,6.10
2022-08-31T06:41:45.337Z,5.45
2022-08-31T06:44:14.213Z,6.47
2022-08-31T06:46:47.028Z,5.38
2022-08-31T06:49:15.469Z,5.57
2022-08-31T06:51:42.855Z,6.28
2022-08-31T06:54:28.497Z,5.90
2022-08-31T06:56:58.609Z,5.93
2022-08-31T06:59:28.842Z,7.25
2022-08-31T07:02:01.506Z,5.50
2022-08-31T07:04:33.277Z,5.70
2022-08-31T07:07:00.294Z,5.55
2022-08-31T07:09:27.736Z,6.00
2022-08-31T07:11:54.967Z,5.85
2022-08-31T07:14:25.044Z,5.85
2022-08-31T07:16:57.006Z,5.93
2022-08-31T07:19:27.710Z,5.40
2022-08-31T07:22:15.301Z,5.57
2022-08-31T07:24:42.881Z,5.68
2022-08-31T07:27:16.627Z,5.38
2022-08-31T07:29:44.241Z,5.20
2022-08-31T07:32:13.743Z,5.43
2022-08-31T07:34:41.076Z,5.63
2022-08-31T07:37:27.160Z,5.47
2022-08-31T07:40:13.162Z,5.10
2022-08-31T07:42:43.830Z,6.15
2022-08-31T07:45:20.041Z,5.80
2022-08-31T07:47:50.843Z,6.15
2022-08-31T07:50:20.316Z,5.57
2022-08-31T07:52:52.240Z,5.32
2022-08-31T07:55:20.526Z,5.85
2022-08-31T07:57:47.674Z,5.82
2022-08-31T08:00:21.084Z,5.63
2022-08-31T08:02:53.173Z,6.20
2022-08-31T08:05:27.708Z,6.93
2022-08-31T08:08:08.356Z,7.13
2022-08-31T08:10:43.844Z,6.60
2022-08-31T08:13:14.111Z,6.40
2022-08-31T08:15:41.287Z,6.38
2022-08-31T08:18:10.977Z,6.60
2022-08-31T08:20:39.295Z,7.32
2022-08-31T08:23:15.769Z,7.45
2022-08-31T08:25:47.216Z,6.78
2022-08-31T08:31:06.920Z,5.30
2022-08-31T08:33:37.141Z,6.10
2022-08-31T08:36:07.935Z,5.30
2022-08-31T08:38:39.068Z,5.40
2022-08-31T08:41:13.021Z,5.07
2022-08-31T08:43:50.013Z,5.30
2022-08-31T08:46:37.344Z,5.20
2022-08-31T08:49:44.007Z,5.63
2022-08-31T08:52:18.691Z,5.40
2022-08-31T08:54:48.265Z,5.05
2022-08-31T08:57:29.307Z,5.32
2022-08-31T08:59:59.901Z,5.43
2022-08-31T09:03:03.596Z,5.32
2022-08-31T09:05:55.113Z,5.53
2022-08-31T09:08:32.494Z,5.38
2022-08-31T09:11:09.603Z,5.68
2022-08-31T09:13:49.241Z,6.38
2022-08-31T09:16:35.171Z,5.50
2022-08-31T09:19:12.619Z,5.35
2022-08-31T09:21:50.536Z,5.50
2022-08-31T09:24:20.925Z,5.93
2022-08-31T09:27:11.405Z,6.00
2022-08-31T09:29:44.175Z,5.47
2022-08-31T09:32:23.136Z,5.40
2022-08-31T09:35:03.130Z,5.47
2022-08-31T09:37:40.540Z,5.97
2022-08-31T09:40:53.147Z,5.90
2022-08-31T09:43:24.875Z,5.45
2022-08-31T09:46:21.080Z,5.53
2022-08-31T09:48:58.607Z,5.32
2022-08-31T09:51:32.279Z,5.30
2022-08-31T09:54:26.254Z,5.10
2022-08-31T09:56:58.821Z,5.28
2022-08-31T09:59:45.185Z,4.97
2022-08-31T10:02:33.582Z,5.32
2022-08-31T10:05:06.612Z,5.28
2022-08-31T10:07:48.203Z,5.43
2022-08-31T10:10:31.773Z,4.95
2022-08-31T10:13:39.316Z,5.30
2022-08-31T10:16:26.772Z,5.88
2022-08-31T10:19:04.900Z,5.53
2022-08-31T10:21:54.123Z,5.65
2022-08-31T10:24:28.743Z,5.20
2022-08-31T10:27:04.555Z,5.00
2022-08-31T10:29:41.251Z,5.88
2022-08-31T10:32:36.648Z,5.47
2022-08-31T10:35:19.572Z,5.50
2022-08-31T10:38:26.428Z,5.55
2022-08-31T10:41:14.416Z,5.18
2022-08-31T10:43:50.287Z,6.05
2022-08-31T10:46:17.857Z,5.85
2022-08-31T10:48:53.638Z,5.60
2022-08-31T10:51:26.947Z,6.10
2022-08-31T10:54:18.238Z,6.35
2022-08-31T10:56:59.355Z,6.50
2022-08-31T10:59:40.491Z,6.15
2022-08-31T11:02:40.210Z,6.10
2022-08-31T11:05:35.273Z,6.03
2022-08-31T11:08:22.044Z,6.10
2022-08-31T11:10:52.877Z,6.03
2022-08-31T11:13:23.041Z,7.07
2022-08-31T11:15:59.802Z,6.65
2022-08-31T11:18:50.810Z,6.32
2022-08-31T11:21:51.188Z,6.68
2022-08-31T11:24:48.849Z,6.95
2022-08-31T11:27:28.377Z,6.85
2022-08-31T11:30:00.823Z,6.70
2022-08-31T11:32:45.929Z,6.82
2022-08-31T11:35:15.377Z,6.30
2022-08-31T11:37:55.600Z,7.10
2022-08-31T11:40:41.926Z,6.20
2022-08-31T11:43:31.157Z,7.15
2022-08-31T11:46:19.976Z,6.93
2022-08-31T11:48:55.562Z,6.80
2022-08-31T11:51:41.647Z,8.05
2022-08-31T11:54:26.835Z,7.88
2022-08-31T11:56:56.771Z,7.68
2022-08-31T11:59:34.091Z,7.65
2022-08-31T12:02:19.506Z,7.88
2022-08-31T12:04:47.786Z,8.05
2022-08-31T12:07:24.481Z,7.43
2022-08-31T12:10:06.860Z,7.85
2022-08-31T12:12:55.265Z,8.30
2022-08-31T12:15:28.348Z,7.82
2022-08-31T12:18:14.171Z,7.40
2022-08-31T12:21:21.013Z,7.90
2022-08-31T12:24:06.867Z,7.50
2022-08-31T12:27:34.160Z,6.82
2022-08-31T12:30:28.628Z,6.85
2022-08-31T12:33:08.102Z,6.70
2022-08-31T12:35:37.963Z,7.72
2022-08-31T12:38:16.475Z,7.20
2022-08-31T12:40:47.643Z,7.68
2022-08-31T12:43:39.654Z,7.50
2022-08-31T12:46:13.355Z,6.82
2022-08-31T12:48:58.267Z,7.10
2022-08-31T12:51:46.839Z,7.63
2022-08-31T12:54:42.474Z,6.53
2022-08-31T12:57:15.611Z,7.20
2022-08-31T13:00:07.239Z,7.65
2022-08-31T13:02:41.487Z,6.70
2022-08-31T13:05:32.911Z,7.28
2022-08-31T13:08:00.408Z,7.32
2022-08-31T13:10:35.028Z,6.80
2022-08-31T13:13:07.542Z,7.32
2022-08-31T13:15:41.026Z,7.10
2022-08-31T13:18:22.751Z,7.30
2022-08-31T13:21:05.690Z,7.32
2022-08-31T13:23:52.303Z,7.97
2022-08-31T13:26:23.893Z,8.70
2022-08-31T13:28:52.815Z,8.02
2022-08-31T13:31:31.419Z,7.35
2022-08-31T13:34:03.886Z,8.00
2022-08-31T13:36:37.456Z,8.15
2022-08-31T13:39:22.133Z,6.35
2022-08-31T13:44:39.971Z,7.93
2022-08-31T13:47:25.298Z,8.50
2022-08-31T13:50:03.236Z,8.13
2022-08-31T13:52:31.403Z,7.90
2022-08-31T13:55:12.206Z,8.13
2022-08-31T13:57:40.454Z,8.35
2022-08-31T14:00:26.578Z,8.05
2022-08-31T14:02:54.061Z,8.35
2022-08-31T14:05:34.729Z,8.40
2022-08-31T14:08:04.091Z,8.38
2022-08-31T14:10:43.711Z,8.00
2022-08-31T14:13:14.552Z,8.55
2022-08-31T14:15:53.748Z,7.78
2022-08-31T14:18:28.499Z,8.00
2022-08-31T14:21:20.632Z,8.70
2022-08-31T14:24:06.249Z,7.72
2022-08-31T14:26:41.713Z,7.13
2022-08-31T14:29:12.355Z,7.93
2022-08-31T14:31:53.721Z,7.35
2022-08-31T14:34:32.106Z,7.38
2022-08-31T14:37:07.571Z,8.63
2022-08-31T14:39:41.815Z,7.82
2022-08-31T14:42:11.969Z,7.75
2022-08-31T14:44:41.638Z,7.80
2022-08-31T14:47:12.449Z,7.90
2022-08-31T14:49:41.174Z,8.13
2022-08-31T14:52:08.204Z,7.95
2022-08-31T14:54:37.589Z,7.70
2022-08-31T14:57:25.977Z,8.65
2022-08-31T14:59:57.767Z,8.23
2022-08-31T15:02:26.376Z,7.82
2022-08-31T15:04:56.594Z,7.45
2022-08-31T15:07:23.629Z,8.02
2022-08-31T15:09:50.453Z,6.78
2022-08-31T15:12:17.979Z,6.95
2022-08-31T15:14:47.276Z,6.70
2022-08-31T15:17:19.694Z,7.07
2022-08-31T15:19:50.328Z,8.00
2022-08-31T15:22:18.399Z,7.13
2022-08-31T15:24:45.453Z,6.85
2022-08-31T15:27:14.488Z,6.85
2022-08-31T15:29:47.418Z,6.70
2022-08-31T15:32:17.257Z,6.70
2022-08-31T15:34:50.486Z,7.03
2022-08-31T15:37:17.613Z,6.75
2022-08-31T15:39:48.984Z,7.13
2022-08-31T15:42:20.776Z,6.30
2022-08-31T15:44:56.083Z,6.47
2022-08-31T15:47:42.652Z,5.72
2022-08-31T15:50:09.812Z,6.15
2022-08-31T15:52:39.821Z,5.40
2022-08-31T15:55:08.552Z,5.90
2022-08-31T15:57:36.533Z,6.15
2022-08-31T16:00:05.325Z,6.20
2022-08-31T16:02:36.044Z,6.10
2022-08-31T16:05:04.701Z,5.60
2022-08-31T16:07:31.512Z,6.03
2022-08-31T16:09:58.604Z,5.85
2022-08-31T16:12:27.276Z,5.88
2022-08-31T16:14:55.200Z,6.10
2022-08-31T16:17:22.141Z,5.57
2022-08-31T16:19:49.519Z,5.13
2022-08-31T16:22:18.176Z,5.60
2022-08-31T16:24:46.958Z,5.22
2022-08-31T16:27:16.486Z,5.03
2022-08-31T16:29:44.126Z,3.38
2022-08-31T16:32:11.283Z,3.35
2022-08-31T16:34:39.466Z,3.15
2022-08-31T16:37:07.780Z,2.60
2022-08-31T16:39:37.172Z,2.85
2022-08-31T16:42:06.159Z,2.03
2022-08-31T16:44:36.878Z,2.30
2022-08-31T16:47:05.190Z,2.28
2022-08-31T16:49:36.767Z,2.35
2022-08-31T16:52:06.901Z,2.38
2022-08-31T16:54:37.509Z,2.50
2022-08-31T16:57:04.438Z,2.88
2022-08-31T16:59:31.551Z,2.72
2022-08-31T17:01:58.759Z,2.53
2022-08-31T17:07:14.783Z,2.70
2022-08-31T17:09:42.569Z,2.25
2022-08-31T17:12:14.207Z,2.33
2022-08-31T17:14:46.649Z,2.40
2022-08-31T17:17:19.430Z,2.60
2022-08-31T17:19:47.024Z,3.10
2022-08-31T17:22:23.312Z,2.60
2022-08-31T17:24:56.492Z,2.58
2022-08-31T17:27:24.533Z,2.50
2022-08-31T17:29:54.057Z,2.60
2022-08-31T17:32:23.866Z,2.63
2022-08-31T17:34:52.186Z,2.60
2022-08-31T17:37:25.241Z,2.63
2022-08-31T17:39:53.322Z,2.60
2022-08-31T17:42:21.897Z,2.70
2022-08-31T17:44:52.454Z,3.15
2022-08-31T17:47:24.795Z,2.92
2022-08-31T17:49:52.873Z,2.95
2022-08-31T17:52:21.760Z,3.10
2022-08-31T17:54:51.107Z,3.17
2022-08-31T17:57:19.896Z,2.88
2022-08-31T17:59:51.115Z,2.78
2022-08-31T18:02:23.068Z,4.15
2022-08-31T18:04:50.049Z,2.97
2022-08-31T18:07:18.363Z,3.42
2022-08-31T18:09:47.027Z,3.28
2022-08-31T18:12:21.920Z,3.00
2022-08-31T18:14:49.823Z,3.25
2022-08-31T18:17:17.411Z,3.13
2022-08-31T18:19:45.496Z,3.05
2022-08-31T18:22:15.129Z,3.58
2022-08-31T18:24:43.074Z,3.40
2022-08-31T18:27:12.297Z,3.10
2022-08-31T18:29:39.617Z,3.50
2022-08-31T18:32:07.601Z,3.40
2022-08-31T18:34:39.056Z,3.40
2022-08-31T18:37:06.907Z,3.70
2022-08-31T18:39:59.671Z,3.70
2022-08-31T18:42:47.075Z,2.65
2022-08-31T18:45:19.153Z,3.38
2022-08-31T18:50:44.951Z,3.80
2022-08-31T18:53:15.294Z,4.07
2022-08-31T18:55:43.779Z,4.30
2022-08-31T18:58:11.127Z,3.80
2022-08-31T19:00:40.492Z,3.83
2022-08-31T19:03:07.580Z,3.90
2022-08-31T19:05:38.901Z,4.50
2022-08-31T19:08:07.114Z,4.00
2022-08-31T19:10:34.874Z,3.72
2022-08-31T19:13:05.418Z,3.70
2022-08-31T19:15:38.818Z,3.85
2022-08-31T19:18:06.130Z,3.75
2022-08-31T19:20:35.333Z,3.78
2022-08-31T19:23:02.904Z,4.30
2022-08-31T19:25:31.968Z,4.40
2022-08-31T19:28:01.717Z,4.10
2022-08-31T19:30:28.950Z,4.45
2022-08-31T19:32:59.475Z,3.97
2022-08-31T19:35:27.296Z,4.40
2022-08-31T19:37:56.657Z,4.82
2022-08-31T19:40:43.022Z,4.45
2022-08-31T19:46:17.210Z,3.90
2022-08-31T19:48:45.526Z,4.15
2022-08-31T19:51:14.678Z,4.47
2022-08-31T19:53:45.879Z,4.82
2022-08-31T19:56:17.555Z,4.55
2022-08-31T19:58:50.139Z,4.85
2022-08-31T20:01:25.986Z,4.35
2022-08-31T20:03:56.023Z,4.40
2022-08-31T20:06:25.421Z,4.40
2022-08-31T20:08:54.791Z,4.30
2022-08-31T20:11:24.864Z,22.60
2022-08-31T20:13:52.231Z,7.82
2022-08-31T20:16:22.266Z,5.70
2022-08-31T20:19:01.406Z,5.53
2022-08-31T20:21:32.573Z,5.07
2022-08-31T20:24:04.389Z,4.60
2022-08-31T20:26:36.282Z,4.72
2022-08-31T20:29:09.265Z,4.78
2022-08-31T20:31:43.487Z,5.32
2022-08-31T20:34:18.616Z,5.05
2022-08-31T20:36:48.549Z,5.25
2022-08-31T20:39:18.548Z,5.03
2022-08-31T20:41:48.892Z,4.95
2022-08-31T20:44:25.827Z,5.63
2022-08-31T20:47:24.061Z,5.47
2022-08-31T20:49:54.334Z,5.40
2022-08-31T20:52:23.969Z,5.43
2022-08-31T20:55:01.918Z,4.50
2022-08-31T20:57:32.206Z,4.80
2022-08-31T21:00:05.592Z,5.30
2022-08-31T21:02:34.290Z,4.93
2022-08-31T21:05:26.830Z,5.03
2022-08-31T21:07:49.339Z,4.95
2022-08-31T21:10:21.115Z,5.32
2022-08-31T21:13:03.241Z,5.40
2022-08-31T21:15:30.119Z,5.63
2022-08-31T21:17:58.031Z,5.82
2022-08-31T21:20:25.684Z,6.18
2022-08-31T21:22:53.606Z,5.55
2022-08-31T21:25:21.042Z,5.35
2022-08-31T21:27:48.188Z,5.60
2022-08-31T21:30:15.450Z,5.80
2022-08-31T21:32:42.743Z,6.40
2022-08-31T21:35:11.604Z,6.10
2022-08-31T21:37:38.743Z,6.57
2022-08-31T21:40:06.626Z,6.15
2022-08-31T21:42:33.944Z,5.85
2022-08-31T21:45:04.521Z,6.88
2022-08-31T21:47:31.668Z,6.68
2022-08-31T21:49:58.567Z,6.53
2022-08-31T21:52:25.453Z,6.70
2022-08-31T21:54:52.568Z,5.93
2022-08-31T21:57:21.424Z,5.90
2022-08-31T21:59:50.244Z,5.97
2022-08-31T22:02:17.212Z,6.32
2022-08-31T22:04:44.788Z,6.20
2022-08-31T22:07:14.616Z,6.78
2022-08-31T22:09:45.047Z,6.13
2022-08-31T22:12:13.072Z,7.00
2022-08-31T22:14:41.415Z,6.28
2022-08-31T22:17:09.560Z,6.97
2022-08-31T22:19:39.495Z,6.38
2022-08-31T22:22:11.695Z,7.30
2022-08-31T22:24:40.496Z,6.40
2022-08-31T22:27:09.909Z,7.32
2022-08-31T22:29:38.540Z,7.22
2022-08-31T22:32:10.131Z,7.10
2022-08-31T22:34:39.019Z,7.60
2022-08-31T22:37:06.926Z,7.82
2022-08-31T22:39:34.082Z,7.68
2022-08-31T22:42:05.296Z,8.23
2022-08-31T22:44:35.481Z,8.57
2022-08-31T22:47:03.032Z,8.88
2022-08-31T22:49:31.017Z,8.30
2022-08-31T22:51:58.128Z,7.53
2022-08-31T22:54:25.558Z,8.63
2022-08-31T22:56:53.811Z,7.75
2022-08-31T22:59:27.446Z,8.23
2022-08-31T23:02:03.616Z,7.90
2022-08-31T23:04:33.769Z,8.70
2022-08-31T23:07:01.477Z,7.95
2022-08-31T23:09:31.048Z,8.48
2022-08-31T23:12:01.017Z,7.30
2022-08-31T23:14:28.959Z,8.13
2022-08-31T23:16:59.362Z,8.63
2022-08-31T23:19:37.065Z,7.88
2022-08-31T23:22:09.571Z,8.38
2022-08-31T23:24:42.228Z,8.45
2022-08-31T23:27:10.614Z,7.53
2022-08-31T23:29:45.702Z,7.93
2022-08-31T23:32:18.951Z,9.52
2022-08-31T23:34:49.598Z,10.65
2022-08-31T23:37:17.943Z,11.13
2022-08-31T23:39:49.984Z,10.68
2022-08-31T23:42:17.331Z,10.60
2022-08-31T23:44:46.609Z,10.48
2022-08-31T23:47:20.388Z,10.10
2022-08-31T23:49:51.390Z,11.00
2022-08-31T23:52:21.481Z,9.98
2022-08-31T23:54:51.218Z,10.57
2022-08-31T23:57:32.233Z,11.32
